Map

Track Data

SID SEASON NUMBER BASIN SUBBASIN NAME ISO_TIME NATURE LAT LON WMO_WIND WMO_PRES WMO_AGENCY TRACK_TYPE DIST2LAND LANDFALL IFLAG USA_AGENCY USA_ATCF_ID USA_LAT USA_LON USA_RECORD USA_STATUS USA_WIND USA_PRES USA_SSHS USA_R34_NE USA_R34_SE USA_R34_SW USA_R34_NW USA_R50_NE USA_R50_SE USA_R50_SW USA_R50_NW USA_R64_NE USA_R64_SE USA_R64_SW USA_R64_NW USA_POCI USA_ROCI USA_RMW USA_EYE TOKYO_LAT TOKYO_LON TOKYO_GRADE TOKYO_WIND TOKYO_PRES TOKYO_R50_DIR TOKYO_R50_LONG TOKYO_R50_SHORT TOKYO_R30_DIR TOKYO_R30_LONG TOKYO_R30_SHORT TOKYO_LAND CMA_LAT CMA_LON CMA_CAT CMA_WIND CMA_PRES HKO_LAT HKO_LON HKO_CAT HKO_WIND HKO_PRES NEWDELHI_LAT NEWDELHI_LON NEWDELHI_GRADE NEWDELHI_WIND NEWDELHI_PRES NEWDELHI_CI NEWDELHI_DP NEWDELHI_POCI REUNION_LAT REUNION_LON REUNION_TYPE REUNION_WIND REUNION_PRES REUNION_TNUM REUNION_CI REUNION_RMW REUNION_R34_NE REUNION_R34_SE REUNION_R34_SW REUNION_R34_NW REUNION_R50_NE REUNION_R50_SE REUNION_R50_SW REUNION_R50_NW REUNION_R64_NE REUNION_R64_SE REUNION_R64_SW REUNION_R64_NW BOM_LAT BOM_LON BOM_TYPE BOM_WIND BOM_PRES BOM_TNUM BOM_CI BOM_RMW BOM_R34_NE BOM_R34_SE BOM_R34_SW BOM_R34_NW BOM_R50_NE BOM_R50_SE BOM_R50_SW BOM_R50_NW BOM_R64_NE BOM_R64_SE BOM_R64_SW BOM_R64_NW BOM_ROCI BOM_POCI BOM_EYE BOM_POS_METHOD BOM_PRES_METHOD NADI_LAT NADI_LON NADI_CAT NADI_WIND NADI_PRES WELLINGTON_LAT WELLINGTON_LON WELLINGTON_WIND WELLINGTON_PRES DS824_LAT DS824_LON DS824_STAGE DS824_WIND DS824_PRES TD9636_LAT TD9636_LON TD9636_STAGE TD9636_WIND TD9636_PRES TD9635_LAT TD9635_LON TD9635_WIND TD9635_PRES TD9635_ROCI NEUMANN_LAT NEUMANN_LON NEUMANN_CLASS NEUMANN_WIND NEUMANN_PRES MLC_LAT MLC_LON MLC_CLASS MLC_WIND MLC_PRES USA_GUST BOM_GUST BOM_GUST_PER REUNION_GUST REUNION_GUST_PER USA_SEAHGT USA_SEARAD_NE USA_SEARAD_SE USA_SEARAD_SW USA_SEARAD_NW STORM_SPEED STORM_DIR
1878220N15300 1878 12 NA CS NOT_NAMED 1878-08-08 00:00:00 TS 15.0000 -60.5000 40 hurdat_atl main 484 482 O_____________ hurdat_atl AL021878 15.0000 -60.5000 TS 40 0 5 261
1878220N15300 1878 12 NA CS NOT_NAMED 1878-08-08 03:00:00 TS 14.9625 -60.7475 main 482 470 P_____________ AL021878 14.9625 -60.7475 TS 40 0 5 258
1878220N15300 1878 12 NA CS NOT_NAMED 1878-08-08 06:00:00 TS 14.9000 -61.0000 40 hurdat_atl main 470 459 O_____________ hurdat_atl AL021878 14.9000 -61.0000 TS 40 0 5 252
1878220N15300 1878 12 NA CS NOT_NAMED 1878-08-08 09:00:00 TS 14.8000 -61.2575 main 459 447 P_____________ AL021878 14.8000 -61.2575 TS 40 0 5 248
1878220N15300 1878 12 NA CS NOT_NAMED 1878-08-08 12:00:00 TS 14.7000 -61.5000 40 hurdat_atl main 447 436 O_____________ hurdat_atl AL021878 14.7000 -61.5000 TS 40 0 5 249
1878220N15300 1878 12 NA CS NOT_NAMED 1878-08-08 15:00:00 TS 14.6349 -61.7000 main 436 436 P_____________ AL021878 14.6349 -61.7000 TS 40 0 4 256
1878220N15300 1878 12 NA CS NOT_NAMED 1878-08-08 18:00:00 TS 14.6000 -61.9000 40 hurdat_atl main 437 436 O_____________ hurdat_atl AL021878 14.6000 -61.9000 TS 40 0 4 264
1878220N15300 1878 12 NA CS NOT_NAMED 1878-08-08 21:00:00 TS 14.5925 -62.1500 main 436 436 P_____________ AL021878 14.5925 -62.1500 TS 40 0 5 270
1878220N15300 1878 12 NA CS NOT_NAMED 1878-08-09 00:00:00 TS 14.6000 -62.4000 40 hurdat_atl main 436 436 O_____________ hurdat_atl AL021878 14.6000 -62.4000 TS 40 0 4 272
1878220N15300 1878 12 NA CS NOT_NAMED 1878-08-09 03:00:00 TS 14.6074 -62.6000 main 436 436 P_____________ AL021878 14.6074 -62.6000 TS 40 0 4 270
1878220N15300 1878 12 NA CS NOT_NAMED 1878-08-09 06:00:00 TS 14.6000 -62.8000 40 hurdat_atl main 436 436 O_____________ hurdat_atl AL021878 14.6000 -62.8000 TS 40 0 4 262
1878220N15300 1878 12 NA CS NOT_NAMED 1878-08-09 09:00:00 TS 14.5499 -63.0200 main 425 425 P_____________ AL021878 14.5499 -63.0200 TS 40 0 5 258
1878220N15300 1878 12 NA CS NOT_NAMED 1878-08-09 12:00:00 TS 14.5000 -63.3000 40 hurdat_atl main 426 426 O_____________ hurdat_atl AL021878 14.5000 -63.3000 TS 40 0 6 266
1878220N15300 1878 12 NA CS NOT_NAMED 1878-08-09 15:00:00 TS 14.5000 -63.6774 main 430 430 P_____________ AL021878 14.5000 -63.6774 TS 40 0 8 270
1878220N15300 1878 12 NA CS NOT_NAMED 1878-08-09 18:00:00 TS 14.5000 -64.1000 40 hurdat_atl main 431 415 O_____________ hurdat_atl AL021878 14.5000 -64.1000 TS 40 0 8 266
1878220N15300 1878 12 NA CS NOT_NAMED 1878-08-09 21:00:00 TS 14.4500 -64.5076 main 426 414 P_____________ AL021878 14.4500 -64.5076 TS 40 0 8 263
1878220N15300 1878 12 NA CS NOT_NAMED 1878-08-10 00:00:00 TS 14.4000 -64.9000 40 hurdat_atl main 414 406 O_____________ hurdat_atl AL021878 14.4000 -64.9000 TS 40 0 7 266
1878220N15300 1878 12 NA CS NOT_NAMED 1878-08-10 03:00:00 TS 14.3998 -65.2424 main 406 396 P_____________ AL021878 14.3998 -65.2424 TS 40 0 7 270
1878220N15300 1878 12 NA CS NOT_NAMED 1878-08-10 06:00:00 TS 14.4000 -65.6000 40 hurdat_atl main 396 392 O_____________ hurdat_atl AL021878 14.4000 -65.6000 TS 40 0 8 267
1878220N15300 1878 12 NA CS NOT_NAMED 1878-08-10 09:00:00 TS 14.3574 -66.0200 main 392 391 P_____________ AL021878 14.3574 -66.0200 TS 40 0 9 263
1878220N15300 1878 12 NA CS NOT_NAMED 1878-08-10 12:00:00 TS 14.3000 -66.5000 40 hurdat_atl main 403 378 O_____________ hurdat_atl AL021878 14.3000 -66.5000 TS 40 0 10 264
1878220N15300 1878 12 NA CS NOT_NAMED 1878-08-10 15:00:00 TS 14.2500 -67.0425 main 378 339 P_____________ AL021878 14.2500 -67.0425 TS 40 0 11 265
1878220N15300 1878 12 NA CS NOT_NAMED 1878-08-10 18:00:00 TS 14.2000 -67.6000 40 hurdat_atl main 339 305 O_____________ hurdat_atl AL021878 14.2000 -67.6000 TS 40 0 10 264
1878220N15300 1878 12 NA CS NOT_NAMED 1878-08-10 21:00:00 TS 14.1496 -68.0775 main 296 264 P_____________ AL021878 14.1496 -68.0775 TS 40 0 10 264
1878220N15300 1878 12 NA CS NOT_NAMED 1878-08-11 00:00:00 TS 14.1000 -68.6000 40 hurdat_atl main 264 225 O_____________ hurdat_atl AL021878 14.1000 -68.6000 TS 40 0 12 265
1878220N15300 1878 12 NA CS NOT_NAMED 1878-08-11 03:00:00 TS 14.0426 -69.2776 main 222 212 P_____________ AL021878 14.0426 -69.2776 TS 40 0 14 266
1878220N15300 1878 12 NA CS NOT_NAMED 1878-08-11 06:00:00 TS 14.0000 -70.0000 40 hurdat_atl main 212 203 O_____________ hurdat_atl AL021878 14.0000 -70.0000 TS 40 0 13 267
1878220N15300 1878 12 NA CS NOT_NAMED 1878-08-11 09:00:00 TS 13.9845 -70.6275 main 203 180 P_____________ AL021878 13.9845 -70.6275 TS 40 0 13 270
1878220N15300 1878 12 NA CS NOT_NAMED 1878-08-11 12:00:00 TS 14.0000 -71.3000 40 hurdat_atl main 180 179 O_____________ hurdat_atl AL021878 14.0000 -71.3000 TS 40 0 15 272
1878220N15300 1878 12 NA CS NOT_NAMED 1878-08-11 15:00:00 TS 14.0351 -72.1275 main 184 184 P_____________ AL021878 14.0351 -72.1275 TS 40 0 17 273
1878220N15300 1878 12 NA CS NOT_NAMED 1878-08-11 18:00:00 TS 14.1000 -73.0000 40 hurdat_atl main 228 228 O_____________ hurdat_atl AL021878 14.1000 -73.0000 TS 40 0 16 275
1878220N15300 1878 12 NA CS NOT_NAMED 1878-08-11 21:00:00 TS 14.1922 -73.8150 main 283 283 P_____________ AL021878 14.1922 -73.8150 TS 45 0 16 277
1878220N15300 1878 12 NA CS NOT_NAMED 1878-08-12 00:00:00 TS 14.3000 -74.6000 50 hurdat_atl main 349 349 O_____________ hurdat_atl AL021878 14.3000 -74.6000 TS 50 0 15 277
1878220N15300 1878 12 NA CS NOT_NAMED 1878-08-12 03:00:00 TS 14.3773 -75.3653 main 381 376 P_____________ AL021878 14.3773 -75.3653 TS 50 0 15 278
1878220N15300 1878 12 NA CS NOT_NAMED 1878-08-12 06:00:00 TS 14.5000 -76.1000 50 hurdat_atl main 376 338 O_____________ hurdat_atl AL021878 14.5000 -76.1000 TS 50 0 15 283
1878220N15300 1878 12 NA CS NOT_NAMED 1878-08-12 09:00:00 TS 14.6974 -76.8301 main 338 302 P_____________ AL021878 14.6974 -76.8301 TS 50 0 14 290
1878220N15300 1878 12 NA CS NOT_NAMED 1878-08-12 12:00:00 TS 15.0000 -77.5000 50 hurdat_atl main 303 271 O_____________ hurdat_atl AL021878 15.0000 -77.5000 TS 50 0 14 301
1878220N15300 1878 12 NA CS NOT_NAMED 1878-08-12 15:00:00 TS 15.4347 -78.0799 main 274 239 P_____________ AL021878 15.4347 -78.0799 TS 50 0 14 310
1878220N15300 1878 12 NA CS NOT_NAMED 1878-08-12 18:00:00 TS 15.9000 -78.6000 50 hurdat_atl main 243 232 O_____________ hurdat_atl AL021878 15.9000 -78.6000 TS 50 0 13 310
1878220N15300 1878 12 NA CS NOT_NAMED 1878-08-12 21:00:00 TS 16.2573 -79.1079 main 225 213 P_____________ AL021878 16.2573 -79.1079 TS 50 0 12 306
1878220N15300 1878 12 NA CS NOT_NAMED 1878-08-13 00:00:00 TS 16.6000 -79.6000 50 hurdat_atl main 219 215 O_____________ hurdat_atl AL021878 16.6000 -79.6000 TS 50 0 12 308
1878220N15300 1878 12 NA CS NOT_NAMED 1878-08-13 03:00:00 TS 17.0074 -80.1075 main 224 224 P_____________ AL021878 17.0074 -80.1075 TS 50 0 13 310
1878220N15300 1878 12 NA CS NOT_NAMED 1878-08-13 06:00:00 TS 17.4000 -80.6000 50 hurdat_atl main 249 249 O_____________ hurdat_atl AL021878 17.4000 -80.6000 TS 50 0 11 308
1878220N15300 1878 12 NA CS NOT_NAMED 1878-08-13 09:00:00 TS 17.7073 -81.0504 main 291 289 P_____________ AL021878 17.7073 -81.0504 TS 50 0 10 305
1878220N15300 1878 12 NA CS NOT_NAMED 1878-08-13 12:00:00 TS 18.0000 -81.5000 50 hurdat_atl main 328 328 O_____________ hurdat_atl AL021878 18.0000 -81.5000 TS 50 0 11 305
1878220N15300 1878 12 NA CS NOT_NAMED 1878-08-13 15:00:00 TS 18.3350 -82.0076 main 356 303 P_____________ AL021878 18.3350 -82.0076 TS 50 0 12 306
1878220N15300 1878 12 NA CS NOT_NAMED 1878-08-13 18:00:00 TS 18.7000 -82.5000 50 hurdat_atl main 303 257 O_____________ hurdat_atl AL021878 18.7000 -82.5000 TS 50 0 12 312
1878220N15300 1878 12 NA CS NOT_NAMED 1878-08-13 21:00:00 TS 19.0998 -82.9152 main 257 218 P_____________ AL021878 19.0998 -82.9152 TS 55 0 11 317
1878220N15300 1878 12 NA CS NOT_NAMED 1878-08-14 00:00:00 TS 19.5000 -83.3000 60 hurdat_atl main 218 197 O_____________ hurdat_atl AL021878 19.5000 -83.3000 TS 60 0 11 316
1878220N15300 1878 12 NA CS NOT_NAMED 1878-08-14 03:00:00 TS 19.8499 -83.6928 main 201 182 P_____________ AL021878 19.8499 -83.6928 TS 60 0 10 313
1878220N15300 1878 12 NA CS NOT_NAMED 1878-08-14 06:00:00 TS 20.2000 -84.1000 60 hurdat_atl main 183 134 O_____________ hurdat_atl AL021878 20.2000 -84.1000 TS 60 0 11 313
1878220N15300 1878 12 NA CS NOT_NAMED 1878-08-14 09:00:00 TS 20.6151 -84.5648 main 134 111 P_____________ AL021878 20.6151 -84.5648 TS 60 0 9 309
1878220N15300 1878 12 NA CS NOT_NAMED 1878-08-14 12:00:00 TS 20.7778 -84.8556 60 hurdat_atl main 112 102 O____________O hurdat_atl AL021878 21.0000 -85.0000 TS 60 0 19.0000 -83.7000 TS 40 6 297
1878220N15300 1878 12 NA CS NOT_NAMED 1878-08-14 15:00:00 TS 20.8674 -85.0942 main 105 105 P____________P AL021878 21.2723 -85.3303 TS 60 0 19.2477 -84.1498 TS 40 5 292
1878220N15300 1878 12 NA CS NOT_NAMED 1878-08-14 18:00:00 TS 20.9545 -85.3273 60 hurdat_atl main 103 103 O____________O hurdat_atl AL021878 21.5000 -85.6000 TS 60 0 19.5000 -84.6000 TS 40 5 296
1878220N15300 1878 12 NA CS NOT_NAMED 1878-08-14 21:00:00 TS 21.0857 -85.5785 main 108 85 P____________P AL021878 21.7498 -85.8427 TS 65 1 19.7574 -85.0501 TS 45 7 305
1878220N15300 1878 12 NA CS NOT_NAMED 1878-08-15 00:00:00 TS 21.3333 -85.9000 70 hurdat_atl main 85 61 O____________O hurdat_atl AL021878 22.0000 -86.1000 HU 70 1 20.0000 -85.5000 TS 50 8 307
1878220N15300 1878 12 NA CS NOT_NAMED 1878-08-15 03:00:00 TS 21.5791 -86.2733 main 61 45 P____________P AL021878 22.2650 -86.4349 HU 70 1 20.2074 -85.9502 TS 50 9 303
1878220N15300 1878 12 NA GM NOT_NAMED 1878-08-15 06:00:00 TS 21.8000 -86.6667 70 hurdat_atl main 45 39 O____________O hurdat_atl AL021878 22.5000 -86.8000 HU 70 1 20.4000 -86.4000 TS 50 8 299
1878220N15300 1878 12 NA GM NOT_NAMED 1878-08-15 09:00:00 TS 21.9866 -87.0551 main 55 55 P____________P AL021878 22.6800 -87.1576 HU 70 1 20.5999 -86.8501 TS 50 8 295
1878220N15300 1878 12 NA GM NOT_NAMED 1878-08-15 12:00:00 TS 22.1333 -87.4333 70 hurdat_atl main 73 70 O____________O hurdat_atl AL021878 22.8000 -87.5000 HU 70 1 20.8000 -87.3000 TS 50 7 291
1878220N15300 1878 12 NA GM NOT_NAMED 1878-08-15 15:00:00 TS 22.2456 -87.7759 main 78 78 P____________P AL021878 22.8647 -87.7852 HU 70 1 21.0074 -87.7575 TS 55 7 287
1878220N15300 1878 12 NA GM NOT_NAMED 1878-08-15 18:00:00 TS 22.3333 -88.1333 70 hurdat_atl main 89 89 O____________O hurdat_atl AL021878 22.9000 -88.1000 HU 70 1 21.2000 -88.2000 TS 60 8 284
1878220N15300 1878 12 NA GM NOT_NAMED 1878-08-15 21:00:00 TS 22.4242 -88.5667 main 100 100 P____________P AL021878 22.9577 -88.5499 HU 70 1 21.3573 -88.6002 TS 60 8 282
1878220N15300 1878 12 NA GM NOT_NAMED 1878-08-16 00:00:00 TS 22.5000 -89.0000 70 hurdat_atl main 119 119 O____________O hurdat_atl AL021878 23.0000 -89.0000 HU 70 1 21.5000 -89.0000 TS 60 7 280
1878220N15300 1878 12 NA GM NOT_NAMED 1878-08-16 03:00:00 TS 22.5573 -89.3575 main 145 145 P____________P AL021878 23.0072 -89.3151 HU 70 1 21.6574 -89.4425 TS 60 7 279
1878220N15300 1878 12 NA GM NOT_NAMED 1878-08-16 06:00:00 TS 22.6000 -89.7000 70 hurdat_atl main 151 151 O____________O hurdat_atl AL021878 23.0000 -89.6000 HU 70 1 21.8000 -89.9000 TS 60 7 277
1878220N15300 1878 12 NA GM NOT_NAMED 1878-08-16 09:00:00 TS 22.6333 -90.0759 main 157 157 P____________P AL021878 22.9999 -89.9350 HU 70 1 21.8999 -90.3577 TS 62 7 275
1878220N15300 1878 12 NA GM NOT_NAMED 1878-08-16 12:00:00 TS 22.6667 -90.4667 70 hurdat_atl main 178 178 O____________O hurdat_atl AL021878 23.0000 -90.3000 HU 70 1 22.0000 -90.8000 HU 65 7 277
1878220N15300 1878 12 NA GM NOT_NAMED 1878-08-16 15:00:00 TS 22.7165 -90.8517 main 189 189 P____________P AL021878 22.9998 -90.6775 HU 70 1 22.1498 -91.2000 HU 65 7 278
1878220N15300 1878 12 NA GM NOT_NAMED 1878-08-16 18:00:00 TS 22.7667 -91.2667 70 hurdat_atl main 216 216 O____________O hurdat_atl AL021878 23.0000 -91.1000 HU 70 1 22.3000 -91.6000 HU 65 8 276
1878220N15300 1878 12 NA GM NOT_NAMED 1878-08-16 21:00:00 TS 22.8025 -91.7475 main 238 238 P____________P AL021878 23.0000 -91.5925 HU 70 1 22.4075 -92.0576 HU 65 9 274
1878220N15300 1878 12 NA GM NOT_NAMED 1878-08-17 00:00:00 TS 22.8333 -92.2333 70 hurdat_atl main 272 272 O____________O hurdat_atl AL021878 23.0000 -92.1000 HU 70 1 22.5000 -92.5000 HU 65 8 275
1878220N15300 1878 12 NA GM NOT_NAMED 1878-08-17 03:00:00 TS 22.8689 -92.6550 main 318 318 P____________P AL021878 22.9997 -92.5500 HU 70 1 22.6073 -92.8650 HU 65 8 275
1878220N15300 1878 12 NA GM NOT_NAMED 1878-08-17 06:00:00 TS 22.9000 -93.0667 70 hurdat_atl main 351 351 O____________O hurdat_atl AL021878 23.0000 -93.0000 HU 70 1 22.7000 -93.2000 HU 65 8 274
1878220N15300 1878 12 NA GM NOT_NAMED 1878-08-17 09:00:00 TS 22.9192 -93.5242 main 386 378 P____________P AL021878 23.0000 -93.5075 HU 70 1 22.7575 -93.5576 HU 65 8 272
1878220N15300 1878 12 NA GM NOT_NAMED 1878-08-17 12:00:00 TS 22.9333 -93.9667 70 hurdat_atl main 369 345 O____________O hurdat_atl AL021878 23.0000 -94.0000 HU 70 1 22.8000 -93.9000 HU 65 8 273
1878220N15300 1878 12 NA GM NOT_NAMED 1878-08-17 15:00:00 TS 22.9548 -94.3433 main 345 309 P____________P AL021878 23.0073 -94.4149 HU 70 1 22.8499 -94.2000 HU 65 7 273
1878220N15300 1878 12 NA GM NOT_NAMED 1878-08-17 18:00:00 TS 22.9667 -94.7000 70 hurdat_atl main 309 275 O____________O hurdat_atl AL021878 23.0000 -94.8000 HU 70 1 22.9000 -94.5000 HU 65 7 270
1878220N15300 1878 12 NA GM NOT_NAMED 1878-08-17 21:00:00 TS 22.9499 -95.0759 main 268 243 P____________P AL021878 22.9573 -95.1925 HU 70 1 22.9350 -94.8426 HU 65 7 267
1878220N15300 1878 12 NA GM NOT_NAMED 1878-08-18 00:00:00 TS 22.9333 -95.4667 70 hurdat_atl main 235 194 O____________O hurdat_atl AL021878 22.9000 -95.6000 HU 70 1 23.0000 -95.2000 HU 65 7 270
1878220N15300 1878 12 NA GM NOT_NAMED 1878-08-18 03:00:00 TS 22.9474 -95.8733 main 194 153 P____________P AL021878 22.8499 -96.0350 HU 70 1 23.1424 -95.5499 HU 65 8 272
1878220N15300 1878 12 NA GM NOT_NAMED 1878-08-18 06:00:00 TS 22.9667 -96.3000 70 hurdat_atl main 153 112 O____________O hurdat_atl AL021878 22.8000 -96.5000 HU 70 1 23.3000 -95.9000 HU 65 8 271
1878220N15300 1878 12 NA GM NOT_NAMED 1878-08-18 09:00:00 TS 22.9666 -96.7450 main 112 61 P____________P AL021878 22.7499 -96.9925 HU 70 1 23.3999 -96.2502 HU 65 8 270
1878220N15300 1878 12 NA GM NOT_NAMED 1878-08-18 12:00:00 TS 22.9667 -97.2000 70 hurdat_atl main 61 20 O____________O hurdat_atl AL021878 22.7000 -97.5000 HU 70 1 23.5000 -96.6000 HU 65 8 271
1878220N15300 1878 12 NA GM NOT_NAMED 1878-08-18 15:00:00 TS 22.9833 -97.6650 main 10 0 P____________P AL021878 22.6500 -98.0225 HU 55 0 23.6499 -96.9500 HU 65 8 279
1878220N15300 1878 12 NA NA NOT_NAMED 1878-08-18 18:00:00 TS 23.0800 -98.0200 40 hurdat_atl main 0 0 O____________O hurdat_atl AL021878 22.6000 -98.5000 TS 40 0 23.8000 -97.3000 HU 65 6 294
1878220N15300 1878 12 NA NA NOT_NAMED 1878-08-18 21:00:00 TS 23.2250 -98.2651 main 0 0 P____________P AL021878 22.5500 -98.8800 TS 35 0 23.8999 -97.6502 HU 62 5 307
1878220N15300 1878 12 NA NA NOT_NAMED 1878-08-19 00:00:00 TS 23.4000 -98.4800 30 hurdat_atl main 0 0 O____________O hurdat_atl AL021878 22.5000 -99.2000 TD 30 -1 24.0000 -98.0000 TS 60 9 355
1878220N15300 1878 12 NA NA NOT_NAMED 1878-08-19 03:00:00 TS 24.1377 -98.3498 main 0 0 _____________P AL021878 TD -1 24.1377 -98.3498 TS 50 9 347
1878220N15300 1878 12 NA NA NOT_NAMED 1878-08-19 06:00:00 TS 24.3000 -98.7000 main 0 _____________O 24.3000 -98.7000 TS 40 7 297

About IBTrACS Database

This database is a web-friendly format of International Best Track Archive for Climate Stewardship (IBTrACS), a global best track data archive curated by NOAA dating back to 1842.

Updated: 2021-10-21